createdAt,value
2018-03-01T00:01:22.734Z,102226.78
2018-03-01T00:03:48.741Z,102225.82
2018-03-01T00:06:14.683Z,102223.78
2018-03-01T00:08:40.610Z,102223.63
2018-03-01T00:11:06.489Z,102210.64
2018-03-01T00:13:32.389Z,102212.01
2018-03-01T00:15:58.414Z,102208.16
2018-03-01T00:18:24.369Z,102214.30
2018-03-01T00:20:50.270Z,102206.41
2018-03-01T00:23:16.532Z,102207.20
2018-03-01T00:25:42.418Z,102199.59
2018-03-01T00:28:08.526Z,102196.66
2018-03-01T00:30:34.649Z,102198.44
2018-03-01T00:33:00.545Z,102190.80
2018-03-01T00:35:26.426Z,102193.79
2018-03-01T00:37:52.742Z,102189.91
2018-03-01T00:40:18.720Z,102188.50
2018-03-01T00:42:44.644Z,102180.77
2018-03-01T00:45:10.594Z,102173.51
2018-03-01T00:47:36.501Z,102176.73
2018-03-01T00:50:02.390Z,102170.58
2018-03-01T00:55:20.585Z,102166.70
2018-03-01T00:57:46.476Z,102174.56
2018-03-01T01:00:12.371Z,102179.56
2018-03-01T01:02:38.297Z,102176.98
2018-03-01T01:05:04.184Z,102169.66
2018-03-01T01:07:30.247Z,102166.16
2018-03-01T01:09:56.497Z,102164.59
2018-03-01T01:12:22.405Z,102168.06
2018-03-01T01:14:48.287Z,102159.86
2018-03-01T01:17:14.204Z,102161.92
2018-03-01T01:19:40.242Z,102143.72
2018-03-01T01:22:06.156Z,102143.49
2018-03-01T01:24:32.102Z,102140.05
2018-03-01T01:26:58.000Z,102130.55
2018-03-01T01:29:23.873Z,102124.75
2018-03-01T01:31:51.019Z,102122.17
2018-03-01T01:34:16.947Z,102124.55
2018-03-01T01:36:42.852Z,102114.87
2018-03-01T01:39:08.798Z,102117.39
2018-03-01T01:41:34.704Z,102113.70
2018-03-01T01:44:00.733Z,102115.48
2018-03-01T01:46:26.685Z,102103.33
2018-03-01T01:48:52.574Z,102098.05
2018-03-01T01:51:18.450Z,102094.64
2018-03-01T01:53:44.394Z,102080.96
2018-03-01T01:56:10.446Z,102080.33
2018-03-01T01:58:36.338Z,102082.81
2018-03-01T02:01:02.272Z,102079.88
2018-03-01T02:03:28.165Z,102080.55
2018-03-01T02:05:54.057Z,102072.91
2018-03-01T02:08:20.142Z,102065.31
2018-03-01T02:10:46.269Z,102065.02
2018-03-01T02:13:12.145Z,102056.30
2018-03-01T02:15:38.526Z,102051.98
2018-03-01T02:18:04.426Z,102050.52
2018-03-01T02:20:30.505Z,102048.41
2018-03-01T02:22:56.738Z,102045.81
2018-03-01T02:25:22.660Z,102035.25
2018-03-01T02:27:48.544Z,102025.10
2018-03-01T02:30:27.549Z,102034.45
2018-03-01T02:32:54.415Z,102029.08
2018-03-01T02:35:20.302Z,102025.89
2018-03-01T02:37:46.252Z,102016.11
2018-03-01T02:40:12.193Z,102014.01
2018-03-01T02:42:38.665Z,102018.42
2018-03-01T02:45:04.743Z,102016.80
2018-03-01T02:47:30.645Z,102012.09
2018-03-01T02:49:56.542Z,102007.20
2018-03-01T02:52:22.731Z,102006.22
2018-03-01T02:54:48.622Z,101999.03
2018-03-01T02:57:14.649Z,101995.91
2018-03-01T02:59:40.733Z,101997.53
2018-03-01T03:02:06.632Z,102000.43
2018-03-01T03:04:32.536Z,101978.75
2018-03-01T03:06:58.509Z,101976.97
2018-03-01T03:09:24.561Z,101990.51
2018-03-01T03:11:50.471Z,101979.64
2018-03-01T03:14:16.430Z,101987.97
2018-03-01T03:16:42.346Z,101974.36
2018-03-01T03:19:08.238Z,101985.95
2018-03-01T03:21:34.313Z,101978.91
2018-03-01T03:24:00.193Z,101979.09
2018-03-01T03:26:26.086Z,101982.52
2018-03-01T03:28:52.164Z,101978.84
2018-03-01T03:31:18.095Z,101973.46
2018-03-01T03:33:44.124Z,101977.28
2018-03-01T03:36:10.061Z,101983.89
2018-03-01T03:38:35.944Z,101982.52
2018-03-01T03:41:01.809Z,101969.36
2018-03-01T03:43:27.749Z,101962.66
2018-03-01T03:45:53.776Z,101966.59
2018-03-01T03:48:19.666Z,101969.01
2018-03-01T03:50:45.898Z,101975.80
2018-03-01T03:53:11.828Z,101977.12
2018-03-01T03:55:38.400Z,101970.17
2018-03-01T03:58:04.674Z,101973.67
2018-03-01T04:00:30.570Z,101967.48
2018-03-01T04:02:56.463Z,101966.07
2018-03-01T04:05:22.380Z,101969.41
2018-03-01T04:07:48.289Z,101960.98
2018-03-01T04:10:14.262Z,101968.23
2018-03-01T04:12:40.198Z,101969.63
2018-03-01T04:15:06.114Z,101969.24
2018-03-01T04:17:32.018Z,101967.23
2018-03-01T04:19:58.059Z,101969.59
2018-03-01T04:22:23.958Z,101971.75
2018-03-01T04:24:49.857Z,101974.30
2018-03-01T04:27:15.961Z,101973.45
2018-03-01T04:29:41.866Z,101976.69
2018-03-01T04:32:07.749Z,101979.67
2018-03-01T04:34:33.714Z,101972.56
2018-03-01T04:36:59.601Z,101967.98
2018-03-01T04:39:25.465Z,101969.59
2018-03-01T04:41:51.381Z,101969.45
2018-03-01T04:44:17.242Z,101970.42
2018-03-01T04:46:43.115Z,101955.16
2018-03-01T04:49:09.018Z,101955.73
2018-03-01T04:51:34.874Z,101953.91
2018-03-01T04:54:00.741Z,101949.02
2018-03-01T04:56:26.978Z,101951.61
2018-03-01T04:58:52.828Z,101946.72
2018-03-01T05:01:18.747Z,101947.70
2018-03-01T05:03:44.725Z,101939.03
2018-03-01T05:06:10.601Z,101943.38
2018-03-01T05:08:36.468Z,101936.81
2018-03-01T05:11:02.478Z,101940.05
2018-03-01T05:13:28.358Z,101922.73
2018-03-01T05:15:54.221Z,101929.52
2018-03-01T05:18:20.126Z,101919.87
2018-03-01T05:20:46.009Z,101923.36
2018-03-01T05:23:12.869Z,101927.83
2018-03-01T05:25:38.782Z,101930.62
2018-03-01T05:28:04.870Z,101920.52
2018-03-01T05:30:30.798Z,101903.27
2018-03-01T05:32:56.687Z,101921.80
2018-03-01T05:35:22.670Z,101919.59
2018-03-01T05:37:48.623Z,101905.37
2018-03-01T05:40:15.356Z,101903.19
2018-03-01T05:42:41.234Z,101907.84
2018-03-01T05:45:07.081Z,101899.98
2018-03-01T05:47:33.213Z,101891.02
2018-03-01T05:49:59.090Z,101890.90
2018-03-01T05:52:25.535Z,101891.98
2018-03-01T05:54:51.479Z,101888.47
2018-03-01T05:57:18.437Z,101888.37
2018-03-01T05:59:44.399Z,101892.42
2018-03-01T06:02:10.338Z,101889.37
2018-03-01T06:04:36.230Z,101880.03
2018-03-01T06:07:02.094Z,101878.13
2018-03-01T06:09:28.048Z,101871.85
2018-03-01T06:11:54.023Z,101864.22
2018-03-01T06:14:19.978Z,101863.91
2018-03-01T06:16:45.942Z,101859.14
2018-03-01T06:19:11.827Z,101848.30
2018-03-01T06:21:37.710Z,101848.30
2018-03-01T06:24:03.718Z,101842.05
2018-03-01T06:26:29.580Z,101845.39
2018-03-01T06:28:55.433Z,101840.31
2018-03-01T06:31:21.401Z,101841.59
2018-03-01T06:33:47.371Z,101838.22
2018-03-01T06:36:13.375Z,101837.41
2018-03-01T06:38:39.301Z,101832.80
2018-03-01T06:41:05.170Z,101838.77
2018-03-01T06:43:31.430Z,101834.67
2018-03-01T06:45:57.344Z,101826.09
2018-03-01T06:48:23.815Z,101817.70
2018-03-01T06:50:49.682Z,101817.91
2018-03-01T06:53:15.652Z,101821.17
2018-03-01T06:55:41.517Z,101822.52
2018-03-01T06:58:07.392Z,101816.92
2018-03-01T07:00:33.369Z,101821.52
2018-03-01T07:02:59.475Z,101817.27
2018-03-01T07:05:25.338Z,101816.59
2018-03-01T07:07:51.254Z,101816.89
2018-03-01T07:10:17.114Z,101800.68
2018-03-01T07:12:43.074Z,101799.48
2018-03-01T07:15:08.985Z,101796.42
2018-03-01T07:17:34.949Z,101785.22
2018-03-01T07:20:00.828Z,101780.11
2018-03-01T07:22:26.793Z,101777.70
2018-03-01T07:24:52.738Z,101782.27
2018-03-01T07:27:18.609Z,101777.36
2018-03-01T07:29:44.582Z,101766.31
2018-03-01T07:32:10.495Z,101768.98
2018-03-01T07:34:36.370Z,101767.73
2018-03-01T07:37:02.452Z,101772.65
2018-03-01T07:39:28.308Z,101759.98
2018-03-01T07:41:54.177Z,101766.02
2018-03-01T07:44:20.076Z,101765.86
2018-03-01T07:46:45.941Z,101779.58
2018-03-01T07:49:11.902Z,101777.31
2018-03-01T07:51:37.874Z,101766.77
2018-03-01T07:54:03.742Z,101769.35
2018-03-01T07:56:29.617Z,101778.20
2018-03-01T07:58:55.531Z,101774.17
2018-03-01T08:01:21.466Z,101770.88
2018-03-01T08:03:47.341Z,101777.05
2018-03-01T08:06:13.295Z,101768.17
2018-03-01T08:08:39.170Z,101764.19
2018-03-01T08:11:05.176Z,101769.98
2018-03-01T08:13:31.169Z,101762.73
2018-03-01T08:15:57.024Z,101773.27
2018-03-01T08:18:22.970Z,101767.12
2018-03-01T08:20:48.877Z,101760.26
2018-03-01T08:23:14.760Z,101748.56
2018-03-01T08:25:40.711Z,101754.11
2018-03-01T08:28:06.821Z,101763.55
2018-03-01T08:30:32.694Z,101750.38
2018-03-01T08:32:58.572Z,101758.92
2018-03-01T08:35:24.472Z,101752.98
2018-03-01T08:37:50.653Z,101736.77
2018-03-01T08:40:16.502Z,101735.71
2018-03-01T08:42:42.406Z,101737.69
2018-03-01T08:45:08.280Z,101732.23
2018-03-01T08:47:34.162Z,101736.16
2018-03-01T08:50:00.248Z,101722.94
2018-03-01T08:52:26.110Z,101720.38
2018-03-01T08:54:52.037Z,101720.09
2018-03-01T08:57:18.116Z,101713.50
2018-03-01T08:59:43.982Z,101706.20
2018-03-01T09:02:09.943Z,101702.48
2018-03-01T09:04:35.878Z,101700.95
2018-03-01T09:07:01.850Z,101706.29
2018-03-01T09:09:27.718Z,101701.20
2018-03-01T09:11:53.674Z,101701.09
2018-03-01T09:14:19.590Z,101704.70
2018-03-01T09:16:45.467Z,101710.20
2018-03-01T09:19:11.373Z,101707.19
2018-03-01T09:21:37.234Z,101702.54
2018-03-01T09:24:03.115Z,101696.39
2018-03-01T09:26:29.101Z,101692.43
2018-03-01T09:28:54.966Z,101671.84
2018-03-01T09:31:20.827Z,101684.50
2018-03-01T09:33:46.750Z,101674.80
2018-03-01T09:36:12.607Z,101679.85
2018-03-01T09:38:38.645Z,101691.55
2018-03-01T09:41:04.907Z,101685.50
2018-03-01T09:43:30.764Z,101676.94
2018-03-01T09:45:56.626Z,101664.05
2018-03-01T09:48:22.558Z,101666.03
2018-03-01T09:50:48.518Z,101662.80
2018-03-01T09:53:14.428Z,101651.88
2018-03-01T09:55:40.828Z,101654.23
2018-03-01T09:58:06.714Z,101656.41
2018-03-01T10:00:32.646Z,101653.00
2018-03-01T10:02:58.969Z,101659.06
2018-03-01T10:05:25.167Z,101653.35
2018-03-01T10:07:51.078Z,101648.00
2018-03-01T10:10:17.035Z,101643.63
2018-03-01T10:12:43.104Z,101643.48
2018-03-01T10:15:09.090Z,101641.02
2018-03-01T10:17:35.431Z,101642.74
2018-03-01T10:20:01.307Z,101628.22
2018-03-01T10:22:27.808Z,101640.92
2018-03-01T10:24:54.179Z,101627.89
2018-03-01T10:27:20.360Z,101618.94
2018-03-01T10:29:47.063Z,101614.44
2018-03-01T10:32:13.557Z,101614.59
2018-03-01T10:34:39.690Z,101606.69
2018-03-01T10:37:05.622Z,101605.98
2018-03-01T10:39:31.591Z,101603.56
2018-03-01T10:41:57.458Z,101588.22
2018-03-01T10:44:23.590Z,101592.39
2018-03-01T10:46:49.589Z,101588.72
2018-03-01T10:49:15.485Z,101575.05
2018-03-01T10:51:41.734Z,101571.50
2018-03-01T10:54:07.759Z,101578.25
2018-03-01T10:56:33.678Z,101570.06
2018-03-01T10:58:59.638Z,101571.03
2018-03-01T11:01:31.992Z,101562.79
2018-03-01T11:03:58.050Z,101547.73
2018-03-01T11:06:23.919Z,101553.45
2018-03-01T11:08:49.847Z,101548.25
2018-03-01T11:11:15.781Z,101548.30
2018-03-01T11:13:41.832Z,101536.52
2018-03-01T11:16:08.027Z,101528.98
2018-03-01T11:18:33.910Z,101515.33
2018-03-01T11:20:59.801Z,101524.91
2018-03-01T11:23:26.001Z,101524.59
2018-03-01T11:25:51.969Z,101513.87
2018-03-01T11:28:17.927Z,101498.92
2018-03-01T11:30:44.038Z,101508.23
2018-03-01T11:33:09.909Z,101493.56
2018-03-01T11:35:35.903Z,101492.17
2018-03-01T11:38:02.523Z,101487.14
2018-03-01T11:40:28.542Z,101479.92
2018-03-01T11:42:54.408Z,101496.42
2018-03-01T11:45:20.696Z,101484.52
2018-03-01T11:47:46.676Z,101481.02
2018-03-01T11:50:12.560Z,101469.64
2018-03-01T11:52:38.557Z,101472.13
2018-03-01T11:55:04.424Z,101463.18
2018-03-01T11:57:30.296Z,101454.34
2018-03-01T11:59:56.358Z,101450.41
2018-03-01T12:02:22.205Z,101452.50
2018-03-01T12:04:48.206Z,101456.95
2018-03-01T12:07:14.139Z,101447.03
2018-03-01T12:09:39.998Z,101434.10
2018-03-01T12:12:05.934Z,101444.48
2018-03-01T12:14:38.725Z,101440.87
2018-03-01T12:17:04.652Z,101438.17
2018-03-01T12:19:30.535Z,101436.01
2018-03-01T12:21:57.243Z,101430.02
2018-03-01T12:24:23.162Z,101421.51
2018-03-01T12:26:49.030Z,101411.40
2018-03-01T12:29:15.008Z,101409.27
2018-03-01T12:31:40.893Z,101413.22
2018-03-01T12:34:06.763Z,101415.50
2018-03-01T12:36:32.752Z,101399.66
2018-03-01T12:38:58.615Z,101406.81
2018-03-01T12:41:24.571Z,101402.56
2018-03-01T12:43:57.220Z,101390.77
2018-03-01T12:46:23.662Z,101400.20
2018-03-01T12:48:49.743Z,101393.75
2018-03-01T12:51:15.672Z,101406.45
2018-03-01T12:53:41.658Z,101406.03
2018-03-01T12:56:07.557Z,101399.41
2018-03-01T12:58:33.485Z,101385.55
2018-03-01T13:00:59.446Z,101395.64
2018-03-01T13:03:25.334Z,101379.48
2018-03-01T13:05:51.381Z,101373.92
2018-03-01T13:08:17.274Z,101375.88
2018-03-01T13:10:43.158Z,101360.82
2018-03-01T13:13:09.455Z,101365.45
2018-03-01T13:15:35.329Z,101364.01
2018-03-01T13:18:01.270Z,101365.31
2018-03-01T13:20:27.208Z,101370.55
2018-03-01T13:22:53.099Z,101364.31
2018-03-01T13:25:19.081Z,101366.84
2018-03-01T13:27:45.016Z,101355.06
2018-03-01T13:30:14.142Z,101360.42
2018-03-01T13:32:46.028Z,101357.64
2018-03-01T13:35:13.002Z,101359.55
2018-03-01T13:37:38.956Z,101351.02
2018-03-01T13:40:04.861Z,101351.05
2018-03-01T13:42:32.586Z,101353.84
2018-03-01T13:44:58.482Z,101351.86
2018-03-01T13:47:27.459Z,101342.34
2018-03-01T13:49:53.358Z,101333.94
2018-03-01T13:52:19.218Z,101330.52
2018-03-01T13:54:45.277Z,101337.43
2018-03-01T13:57:11.331Z,101333.95
2018-03-01T13:59:37.231Z,101326.45
2018-03-01T14:02:03.155Z,101318.05
2018-03-01T14:04:29.074Z,101315.69
2018-03-01T14:10:11.737Z,101306.46
2018-03-01T14:12:43.787Z,101297.91
2018-03-01T14:15:09.669Z,101295.95
2018-03-01T14:20:54.134Z,101287.51
2018-03-01T14:26:25.770Z,101282.64
2018-03-01T14:28:52.574Z,101267.61
2018-03-01T14:31:18.591Z,101271.73
2018-03-01T14:33:44.473Z,101273.93
2018-03-01T14:36:10.399Z,101264.84
2018-03-01T14:38:36.270Z,101260.38
2018-03-01T14:41:02.141Z,101256.12
2018-03-01T14:43:28.118Z,101263.50
2018-03-01T14:45:54.008Z,101266.41
2018-03-01T14:48:19.890Z,101265.78
2018-03-01T14:50:45.794Z,101249.02
2018-03-01T14:53:11.646Z,101235.88
2018-03-01T14:55:37.631Z,101240.69
2018-03-01T14:58:03.655Z,101234.84
2018-03-01T15:00:29.509Z,101233.08
2018-03-01T15:02:55.362Z,101234.25
2018-03-01T15:05:21.275Z,101224.39
2018-03-01T15:07:47.223Z,101229.08
2018-03-01T15:10:13.082Z,101234.33
2018-03-01T15:12:39.019Z,101229.73
2018-03-01T15:15:04.878Z,101223.98
2018-03-01T15:17:30.730Z,101219.63
2018-03-01T15:19:56.707Z,101220.85
2018-03-01T15:22:22.615Z,101216.61
2018-03-01T15:24:48.506Z,101214.88
2018-03-01T15:27:14.417Z,101217.06
2018-03-01T15:29:40.270Z,101219.82
2018-03-01T15:32:06.123Z,101208.70
2018-03-01T15:34:32.021Z,101198.88
2018-03-01T15:36:57.864Z,101193.03
2018-03-01T15:39:23.730Z,101191.27
2018-03-01T15:41:49.646Z,101197.77
2018-03-01T15:44:15.577Z,101186.97
2018-03-01T15:46:41.534Z,101187.14
2018-03-01T15:49:07.435Z,101181.98
2018-03-01T15:51:33.313Z,101185.23
2018-03-01T15:53:59.189Z,101176.72
2018-03-01T15:56:25.094Z,101185.68
2018-03-01T15:58:50.958Z,101180.07
2018-03-01T16:01:16.859Z,101181.14
2018-03-01T16:03:42.755Z,101184.17
2018-03-01T16:06:08.631Z,101176.66
2018-03-01T16:08:34.658Z,101178.94
2018-03-01T16:11:00.571Z,101186.66
2018-03-01T16:13:26.903Z,101188.11
2018-03-01T16:15:52.774Z,101179.30
2018-03-01T16:18:18.678Z,101177.05
2018-03-01T16:20:44.609Z,101171.03
2018-03-01T16:23:10.471Z,101173.24
2018-03-01T16:25:36.407Z,101169.27
2018-03-01T16:28:02.262Z,101164.22
2018-03-01T16:30:28.129Z,101175.57
2018-03-01T16:32:54.111Z,101181.23
2018-03-01T16:35:20.033Z,101179.39
2018-03-01T16:37:45.896Z,101178.67
2018-03-01T16:40:11.821Z,101174.82
2018-03-01T16:42:37.690Z,101180.25
2018-03-01T16:45:03.566Z,101178.05
2018-03-01T16:47:29.470Z,101181.20
2018-03-01T16:49:55.362Z,101178.12
2018-03-01T16:52:21.216Z,101185.27
2018-03-01T16:54:47.134Z,101182.84
2018-03-01T16:57:13.043Z,101178.09
2018-03-01T16:59:38.930Z,101175.80
2018-03-01T17:02:04.858Z,101176.28
2018-03-01T17:04:30.728Z,101180.52
2018-03-01T17:06:56.629Z,101172.34
2018-03-01T17:09:22.611Z,101176.33
2018-03-01T17:11:48.500Z,101183.25
2018-03-01T17:14:14.364Z,101179.94
2018-03-01T17:16:40.889Z,101178.12
2018-03-01T17:19:06.826Z,101179.54
2018-03-01T17:21:32.800Z,101191.89
2018-03-01T17:23:58.730Z,101186.77
2018-03-01T17:26:24.604Z,101187.25
2018-03-01T17:28:50.487Z,101182.63
2018-03-01T17:31:16.414Z,101185.97
2018-03-01T17:33:42.273Z,101186.37
2018-03-01T17:36:08.133Z,101197.81
2018-03-01T17:38:34.030Z,101200.81
2018-03-01T17:40:59.919Z,101196.63
2018-03-01T17:43:25.807Z,101188.73
2018-03-01T17:45:51.722Z,101198.24
2018-03-01T17:48:17.771Z,101186.39
2018-03-01T17:50:43.868Z,101188.48
2018-03-01T17:53:09.891Z,101189.34
2018-03-01T17:55:35.993Z,101204.02
2018-03-01T17:58:02.026Z,101200.18
2018-03-01T18:00:28.355Z,101198.09
2018-03-01T18:02:54.442Z,101190.33
2018-03-01T18:05:20.488Z,101188.42
2018-03-01T18:07:46.566Z,101189.81
2018-03-01T18:10:12.821Z,101184.66
2018-03-01T18:12:38.681Z,101176.70
2018-03-01T18:15:04.689Z,101177.82
2018-03-01T18:17:30.571Z,101181.30
2018-03-01T18:19:56.434Z,101183.27
2018-03-01T18:22:22.413Z,101159.37
2018-03-01T18:24:48.295Z,101166.24
2018-03-01T18:27:14.154Z,101160.80
2018-03-01T18:29:40.494Z,101165.86
2018-03-01T18:32:06.411Z,101161.79
2018-03-01T18:34:32.413Z,101170.33
2018-03-01T18:36:58.337Z,101164.34
2018-03-01T18:39:24.202Z,101163.83
2018-03-01T18:41:50.066Z,101167.84
2018-03-01T18:44:16.003Z,101174.88
2018-03-01T18:46:43.013Z,101162.47
2018-03-01T18:49:08.995Z,101161.23
2018-03-01T18:51:34.959Z,101164.59
2018-03-01T18:54:00.863Z,101157.14
2018-03-01T18:56:26.725Z,101146.10
2018-03-01T18:58:53.050Z,101159.78
2018-03-01T19:01:18.930Z,101157.89
2018-03-01T19:03:44.813Z,101164.56
2018-03-01T19:06:10.824Z,101168.95
2018-03-01T19:08:36.714Z,101161.12
2018-03-01T19:11:02.678Z,101164.63
2018-03-01T19:13:28.631Z,101158.34
2018-03-01T19:15:55.027Z,101156.58
2018-03-01T19:18:23.627Z,101156.29
2018-03-01T19:20:49.570Z,101143.64
2018-03-01T19:23:15.531Z,101144.75
2018-03-01T19:25:41.406Z,101157.38
2018-03-01T19:28:07.689Z,101139.77
2018-03-01T19:30:33.570Z,101145.22
2018-03-01T19:32:59.428Z,101140.12
2018-03-01T19:35:25.410Z,101134.61
2018-03-01T19:37:51.313Z,101134.42
2018-03-01T19:40:17.173Z,101119.27
2018-03-01T19:42:43.585Z,101128.59
2018-03-01T19:45:09.530Z,101120.30
2018-03-01T19:47:35.487Z,101113.48
2018-03-01T19:50:01.703Z,101120.06
2018-03-01T19:52:27.585Z,101120.54
2018-03-01T19:54:53.547Z,101123.67
2018-03-01T19:57:19.490Z,101125.94
2018-03-01T19:59:45.554Z,101124.13
2018-03-01T20:02:11.679Z,101117.80
2018-03-01T20:04:37.594Z,101116.62
2018-03-01T20:07:03.504Z,101115.25
2018-03-01T20:09:29.369Z,101109.70
2018-03-01T20:11:55.441Z,101108.67
2018-03-01T20:14:21.414Z,101112.49
2018-03-01T20:16:47.370Z,101102.20
2018-03-01T20:19:13.938Z,101097.30
2018-03-01T20:21:39.931Z,101091.02
2018-03-01T20:24:05.954Z,101103.95
2018-03-01T20:26:31.867Z,101106.85
2018-03-01T20:28:57.734Z,101097.48
2018-03-01T20:31:23.922Z,101097.64
2018-03-01T20:33:50.347Z,101082.59
2018-03-01T20:36:16.693Z,101087.59
2018-03-01T20:38:42.852Z,101081.75
2018-03-01T20:41:09.481Z,101079.16
2018-03-01T20:43:35.566Z,101077.49
2018-03-01T20:46:01.649Z,101071.61
2018-03-01T20:48:27.846Z,101080.13
2018-03-01T20:50:53.941Z,101074.30
2018-03-01T20:53:20.028Z,101076.66
2018-03-01T20:55:46.320Z,101071.20
2018-03-01T20:58:12.390Z,101075.67
2018-03-01T21:00:38.763Z,101071.63
2018-03-01T21:03:04.804Z,101067.63
2018-03-01T21:05:30.682Z,101066.00
2018-03-01T21:07:57.098Z,101059.92
2018-03-01T21:10:23.600Z,101056.92
2018-03-01T21:12:50.128Z,101059.67
2018-03-01T21:15:16.147Z,101055.41
2018-03-01T21:17:42.147Z,101062.86
2018-03-01T21:20:08.065Z,101056.83
2018-03-01T21:22:34.070Z,101059.67
2018-03-01T21:25:00.256Z,101060.48
2018-03-01T21:27:26.315Z,101049.91
2018-03-01T21:29:52.498Z,101048.23
2018-03-01T21:32:18.673Z,101037.81
2018-03-01T21:34:44.710Z,101042.00
2018-03-01T21:37:10.947Z,101045.27
2018-03-01T21:39:36.864Z,101045.42
2018-03-01T21:42:03.036Z,101042.34
2018-03-01T21:44:29.239Z,101033.42
2018-03-01T21:47:03.163Z,101033.37
2018-03-01T21:49:29.643Z,101026.52
2018-03-01T21:51:55.818Z,101036.46
2018-03-01T21:54:22.055Z,101026.50
2018-03-01T21:56:48.011Z,101020.75
2018-03-01T21:59:13.913Z,101022.02
2018-03-01T22:01:39.937Z,101026.88
2018-03-01T22:04:05.816Z,101015.09
2018-03-01T22:06:31.678Z,101014.97
2018-03-01T22:08:58.007Z,101015.41
2018-03-01T22:11:23.879Z,101011.39
2018-03-01T22:13:49.827Z,101005.01
2018-03-01T22:16:15.904Z,101002.56
2018-03-01T22:18:41.774Z,101002.52
2018-03-01T22:21:07.659Z,100996.98
2018-03-01T22:23:33.819Z,100997.69
2018-03-01T22:25:59.753Z,101001.28
2018-03-01T22:28:25.618Z,100991.27
2018-03-01T22:30:51.519Z,100983.67
2018-03-01T22:33:17.386Z,100988.27
2018-03-01T22:35:43.266Z,100989.64
2018-03-01T22:38:09.279Z,100976.99
2018-03-01T22:40:35.145Z,100979.36
2018-03-01T22:43:01.094Z,100975.55
2018-03-01T22:45:27.011Z,100983.55
2018-03-01T22:47:52.874Z,100975.33
2018-03-01T22:50:18.883Z,100983.35
2018-03-01T22:52:44.820Z,100980.66
2018-03-01T22:55:10.681Z,100979.02
2018-03-01T22:57:36.564Z,100980.45
2018-03-01T23:00:02.506Z,100978.52
2018-03-01T23:02:28.475Z,100969.42
2018-03-01T23:04:54.333Z,100971.63
2018-03-01T23:07:20.250Z,100969.59
2018-03-01T23:09:46.178Z,100963.97
2018-03-01T23:12:13.130Z,100967.19
2018-03-01T23:14:39.130Z,100963.89
2018-03-01T23:17:05.022Z,100957.30
2018-03-01T23:19:30.903Z,100957.12
2018-03-01T23:21:56.813Z,100950.84
2018-03-01T23:24:22.718Z,100952.05
2018-03-01T23:26:49.196Z,100937.45
2018-03-01T23:29:15.110Z,100943.93
2018-03-01T23:31:40.982Z,100938.67
2018-03-01T23:34:06.842Z,100941.80
2018-03-01T23:36:32.829Z,100927.91
2018-03-01T23:38:58.790Z,100932.93
2018-03-01T23:41:24.669Z,100923.84
2018-03-01T23:43:50.565Z,100914.39
2018-03-01T23:46:16.417Z,100916.78
2018-03-01T23:48:42.278Z,100915.70
2018-03-01T23:51:08.288Z,100909.86
2018-03-01T23:53:34.159Z,100902.22
2018-03-01T23:56:00.005Z,100905.20
2018-03-01T23:58:25.938Z,100907.31
